x

Southeast Hawaii - 205 Nm Southeast Of Hilo, Hi (51004) Wave Buoy

6:50am - Sun 5th Jul 2015 All times are HST. -10 hours from GMT.

  • Sig Wave height 6.2ft
  • Swell Direction
  • Peak Period 17s
  • Average Period 6s
  • Wind
    16mph, 20mph gusts
  • Sea Temp 80°f
  • Air Temp 79°f
  • Sea Pressure 1012.7mb
  • Southeast Hawaii - 205 Nm Southeast Of Hilo, Hi
  • Southeast Hawaii - 205 Nm Southeast Of Hilo, Hi

More Historic Weather Station data

Upgrade to MSW Pro to gain access to the past 30 days of data for over 8000 Wavebouys and Weather Stations around the globe.

Join Pro

Comparision Forecast

View Surf forecast
   
Sun 07/05 6:50am 6ft 17s 6s 16 20 mph 1012.7mb 80f 79f
5:50am 6ft 13s 7s 18 20 mph 1012.2mb 80f 78f
4:50am 6ft 14s 6s 16 18 mph 1012mb 80f 78f
3:50am 6ft 13s 7s 16 20 mph 1012.2mb 80f 79f
2:50am 6ft 17s 6s 16 20 mph 1012.3mb 80f 79f
1:50am 6ft 13s 6s 16 20 mph 1012.9mb 80f 79f
12:50am 6ft 14s 6s 16 20 mph 1013.5mb 80f 79f
Sat 07/04 11:50pm 5.5ft 13s 6s 16 18 mph 1014.1mb 80f 79f
10:50pm 6ft 13s 7s 16 18 mph 1014.3mb 80f 79f
9:50pm 5.5ft 12s 6s 16 18 mph 1014.1mb 80f 80f
8:50pm 6ft 13s 7s 13 16 mph 1013.9mb 80f 80f
7:50pm 6ft 13s 7s 13 16 mph 1013.3mb 80f 80f
6:50pm 6ft 13s 7s 11 16 mph 1012.7mb 80f 80f
5:50pm 5.5ft 13s 7s 13 16 mph 1012.1mb 80f 80f
4:50pm 5.5ft 14s 7s 13 16 mph 1011.9mb 80f 80f
3:50pm 5.5ft 8s 7s 13 16 mph 1011.7mb 80f 80f
2:50pm 5.5ft 13s 7s 13 16 mph 1012mb 81f 80f
1:50pm 5ft 13s 6s 13 16 mph 1012.1mb 80f 79f
12:50pm 5.5ft 9s 6s 16 18 mph 1012.2mb 80f 79f
11:50am 5.5ft 13s 6s 13 16 mph 1012.6mb 80f 79f
10:50am 5.5ft 9s  -  13 16 mph 1012.7mb 80f 79f
9:50am 5.5ft 13s 7s 13 18 mph 1012.9mb 80f 79f
8:50am 5.5ft 13s 7s 13 16 mph 1012.9mb 80f 79f
7:50am 6ft 13s 7s 13
mph
1012.9mb 80f 79f
6:50am 5.5ft 9s 7s 11 16 mph 1012.6mb 80f 79f
5:50am 5.5ft 13s 7s 11 13 mph 1012.1mb 80f 78f
4:50am 6ft 7s 6s 11 13 mph 1012.1mb 80f 78f
3:50am 5ft 14s 6s 13 16 mph 1011.5mb 80f 78f
2:50am 6ft 14s 7s 13 16 mph 1011.7mb 80f 78f
1:50am 6ft 14s 7s 13 16 mph 1011.9mb 80f 78f
12:50am 5.5ft 13s 6s 11 13 mph 1012.8mb 80f 78f
Fri 07/03 11:50pm 6ft 14s 7s 16 18 mph 1013.2mb 80f 78f
10:50pm 6ft 8s 6s 9 11 mph 1013.7mb 80f 77f
9:50pm 6ft 14s 6s 13 16 mph 1013.4mb 80f 79f
8:50pm 5.5ft 14s 6s 16 18 mph 1012.7mb 80f 79f
7:50pm 6ft 8s 6s 16 18 mph 1011.9mb 80f 79f
6:50pm 6ft 8s 6s 16 18 mph 1011mb 80f 79f
5:50pm 6ft 8s 7s 18 20 mph 1010.4mb 80f 79f
4:50pm 6ft 9s 6s 18 20 mph 1010mb 80f 79f
3:50pm 6ft 14s 6s 18 20 mph 1010.4mb 80f 79f
2:50pm 6ft 13s 6s 16 18 mph 1010.7mb 80f 79f
1:50pm 6ft 9s 6s 16 18 mph 1011.2mb 80f 79f
12:50pm 5.5ft 7s 6s 16 18 mph 1011.6mb 80f 79f
11:50am 6ft 9s 6s 16 18 mph 1012.1mb 80f 79f
10:50am 5.5ft 14s 6s 16 18 mph 1012.4mb 80f 79f
9:50am 6ft 15s 7s 16 20 mph 1012.4mb 80f 79f
8:50am 6ft 14s 7s 16 20 mph 1012.6mb 80f 79f
7:50am 6ft 8s 7s 16 18 mph 1012.7mb 80f 79f
5:50am 7ft 8s 7s 16 20 mph 1012mb 80f 78f
4:50am 6.5ft 8s 7s 16 18 mph 1011.7mb 80f 78f
3:50am 7ft 9s 7s 16 18 mph 1011.5mb 80f 78f
2:50am 6ft 9s 6s 16 20 mph 1011.7mb 80f 78f
1:50am 6.5ft 9s 7s 16 18 mph 1012.1mb 80f 78f
12:50am 6.5ft 9s 7s 16 18 mph 1012.5mb 80f 79f
Thu 07/02 11:50pm 7ft 9s 7s 18 20 mph 1013mb 80f 79f
10:50pm 7ft 9s 7s 16 20 mph 1013.3mb 80f 79f
9:50pm 6.5ft 8s 7s 16 20 mph 1013mb 80f 79f
8:50pm 6.5ft 9s 6s 16 20 mph 1012.8mb 80f 79f
7:50pm 6.5ft 8s 7s 18 20 mph 1012.1mb 80f 79f
6:50pm 6.5ft 8s 7s 18 20 mph 1011.5mb 80f 79f
5:50pm 6.5ft 8s 6s 16 20 mph 1011.2mb 80f 79f
4:50pm 7ft 8s 6s 18 20 mph 1010.9mb 80f 80f
3:50pm 7ft 8s 7s 18 20 mph 1010.8mb 80f 80f
2:50pm 7ft 8s 7s 18 20 mph 1011.3mb 80f 79f
1:50pm 7ft 8s 6s 16 20 mph 1011.5mb 80f 80f
12:50pm 7ft 9s 7s 13 18 mph 1012.2mb 80f 80f
11:50am 6ft 8s 6s 16 18 mph 1012.7mb 80f 80f
10:50am 6.5ft 8s 7s 16 20 mph 1013mb 80f 80f
9:50am 6.5ft 9s 6s 13 16 mph 1013.1mb 80f 79f
8:50am 7ft 8s 7s 16 18 mph 1012.9mb 80f 79f
7:50am 6.5ft 8s 7s 13 16 mph 1012.5mb 80f 80f
6:50am 7ft 9s 7s 18 22 mph 1012.2mb 80f 78f
5:50am 7.5ft 8s 7s 16 18 mph 1011.5mb 80f 79f
4:50am 7ft 9s 7s 18 22 mph 1011mb 80f 79f
3:50am 7ft 8s 7s 18 20 mph 1010.7mb 80f 79f
2:50am 7ft 8s 7s 13 18 mph 1010.6mb 80f 79f
1:50am 7.5ft 8s 7s 13 18 mph 1010.9mb 80f 79f
12:50am 7ft 14s 7s 18 20 mph 1011.4mb 80f 79f
Wed 07/01 11:50pm 7.5ft 9s 7s 16 18 mph 1011.9mb 80f 79f
10:50pm 7ft 14s 7s 18 20 mph 1012.3mb 80f 80f
9:50pm 7.5ft 9s 7s 16 20 mph 1012.3mb 80f 80f
8:50pm 8ft 9s 7s 18 22 mph 1011.9mb 80f 80f
7:50pm 7ft 14s 7s 18 20 mph 1011.8mb 80f 80f
6:50pm 7ft 9s 7s 18 20 mph 1011.2mb 80f 80f